createdAt,value
2022-12-07T00:01:11.373Z,20.58
2022-12-07T00:03:39.829Z,21.10
2022-12-07T00:06:08.748Z,21.20
2022-12-07T00:08:36.064Z,21.13
2022-12-07T00:11:11.480Z,20.80
2022-12-07T00:13:38.833Z,19.73
2022-12-07T00:16:14.779Z,19.27
2022-12-07T00:18:42.496Z,20.00
2022-12-07T00:21:16.483Z,18.52
2022-12-07T00:23:45.175Z,18.88
2022-12-07T00:26:14.439Z,18.50
2022-12-07T00:28:41.675Z,18.17
2022-12-07T00:31:11.809Z,15.25
2022-12-07T00:33:39.312Z,15.95
2022-12-07T00:36:11.556Z,17.55
2022-12-07T00:38:39.863Z,16.15
2022-12-07T00:41:14.921Z,16.02
2022-12-07T00:43:43.046Z,16.58
2022-12-07T00:46:12.294Z,15.80
2022-12-07T00:48:39.307Z,16.08
2022-12-07T00:51:06.882Z,17.02
2022-12-07T00:53:41.390Z,16.00
2022-12-07T00:56:10.226Z,15.57
2022-12-07T00:58:36.898Z,15.55
2022-12-07T01:01:05.353Z,15.38
2022-12-07T01:03:32.327Z,14.45
2022-12-07T01:05:59.504Z,15.95
2022-12-07T01:08:28.203Z,15.98
2022-12-07T01:11:06.961Z,16.80
2022-12-07T01:13:35.287Z,16.75
2022-12-07T01:16:04.333Z,14.88
2022-12-07T01:18:32.800Z,15.65
2022-12-07T01:21:17.485Z,16.10
2022-12-07T01:23:44.727Z,15.65
2022-12-07T01:26:14.194Z,15.80
2022-12-07T01:28:41.090Z,16.92
2022-12-07T01:31:13.518Z,15.60
2022-12-07T01:33:40.609Z,15.75
2022-12-07T01:36:13.777Z,14.45
2022-12-07T01:38:40.757Z,14.73
2022-12-07T01:41:07.659Z,14.82
2022-12-07T01:43:35.411Z,15.60
2022-12-07T01:46:03.444Z,15.60
2022-12-07T01:48:36.290Z,13.10
2022-12-07T01:51:09.173Z,11.85
2022-12-07T01:53:39.179Z,12.70
2022-12-07T01:56:09.076Z,10.45
2022-12-07T01:58:36.234Z,10.05
2022-12-07T02:01:03.055Z,10.98
2022-12-07T02:03:40.577Z,10.90
2022-12-07T02:06:08.638Z,10.10
2022-12-07T02:08:36.006Z,10.65
2022-12-07T02:11:04.920Z,9.23
2022-12-07T02:13:34.414Z,9.80
2022-12-07T02:16:22.944Z,9.88
2022-12-07T02:19:11.519Z,10.68
2022-12-07T02:21:57.981Z,10.10
2022-12-07T02:24:33.475Z,10.23
2022-12-07T02:27:21.745Z,9.55
2022-12-07T02:29:57.702Z,8.95
2022-12-07T02:32:51.172Z,9.18
2022-12-07T02:35:29.724Z,9.80
2022-12-07T02:38:11.997Z,10.07
2022-12-07T02:41:00.153Z,9.85
2022-12-07T02:43:30.329Z,10.07
2022-12-07T02:46:02.480Z,12.48
2022-12-07T02:48:29.690Z,11.15
2022-12-07T02:50:56.401Z,11.32
2022-12-07T02:53:34.955Z,12.43
2022-12-07T02:56:08.689Z,12.68
2022-12-07T02:58:50.359Z,12.70
2022-12-07T03:01:29.130Z,13.00
2022-12-07T03:04:20.095Z,14.10
2022-12-07T03:07:00.036Z,12.88
2022-12-07T03:10:00.567Z,12.90
2022-12-07T03:12:45.048Z,13.70
2022-12-07T03:15:19.508Z,13.32
2022-12-07T03:17:48.689Z,13.30
2022-12-07T03:20:20.057Z,13.57
2022-12-07T03:22:48.495Z,13.77
2022-12-07T03:25:17.348Z,14.60
2022-12-07T03:27:54.314Z,14.63
2022-12-07T03:30:24.014Z,15.38
2022-12-07T03:33:09.588Z,16.15
2022-12-07T03:35:41.322Z,15.73
2022-12-07T03:38:35.562Z,16.88
2022-12-07T03:41:12.422Z,16.35
2022-12-07T03:43:40.905Z,18.08
2022-12-07T03:46:25.760Z,16.80
2022-12-07T03:48:52.564Z,15.80
2022-12-07T03:51:41.214Z,16.60
2022-12-07T03:54:46.307Z,16.10
2022-12-07T03:57:14.309Z,15.85
2022-12-07T03:59:42.176Z,16.35
2022-12-07T04:02:11.950Z,16.83
2022-12-07T04:04:38.734Z,17.90
2022-12-07T04:07:05.807Z,19.27
2022-12-07T04:09:32.453Z,18.52
2022-12-07T04:11:59.137Z,19.30
2022-12-07T04:14:25.898Z,21.65
2022-12-07T04:16:55.336Z,21.10
2022-12-07T04:19:24.295Z,20.77
2022-12-07T04:21:50.933Z,21.48
2022-12-07T04:24:18.101Z,23.45
2022-12-07T04:26:45.337Z,22.30
2022-12-07T04:29:12.848Z,22.70
2022-12-07T04:31:40.043Z,25.25
2022-12-07T04:34:08.142Z,25.90
2022-12-07T04:36:34.809Z,25.98
2022-12-07T04:39:02.126Z,26.83
2022-12-07T04:41:28.843Z,28.63
2022-12-07T04:44:00.929Z,28.42
2022-12-07T04:46:28.898Z,30.50
2022-12-07T04:48:56.117Z,31.42
2022-12-07T04:51:25.732Z,30.73
2022-12-07T04:53:52.669Z,33.05
2022-12-07T04:56:19.752Z,32.20
2022-12-07T04:58:48.259Z,33.40
2022-12-07T05:01:17.024Z,35.90
2022-12-07T05:03:44.254Z,35.58
2022-12-07T05:06:13.818Z,35.38
2022-12-07T05:08:40.955Z,36.85
2022-12-07T05:11:08.751Z,38.70
2022-12-07T05:13:37.191Z,36.75
2022-12-07T05:16:04.141Z,37.40
2022-12-07T05:18:31.025Z,39.28
2022-12-07T05:20:57.680Z,41.33
2022-12-07T05:23:24.333Z,39.40
2022-12-07T05:25:51.114Z,38.95
2022-12-07T05:28:17.855Z,40.58
2022-12-07T05:30:44.539Z,39.80
2022-12-07T05:33:11.229Z,39.40
2022-12-07T05:35:37.862Z,38.67
2022-12-07T05:38:04.495Z,42.40
2022-12-07T05:40:31.170Z,41.38
2022-12-07T05:43:02.667Z,40.95
2022-12-07T05:45:31.103Z,41.97
2022-12-07T05:47:57.866Z,42.17
2022-12-07T05:50:24.601Z,43.00
2022-12-07T05:52:51.305Z,44.97
2022-12-07T05:55:18.014Z,43.80
2022-12-07T05:57:44.700Z,44.15
2022-12-07T06:00:13.437Z,44.35
2022-12-07T06:02:40.188Z,43.90
2022-12-07T06:05:07.489Z,44.65
2022-12-07T06:07:34.228Z,44.22
2022-12-07T06:10:01.278Z,43.92
2022-12-07T06:12:28.223Z,43.58
2022-12-07T06:14:54.908Z,42.53
2022-12-07T06:17:21.622Z,44.55
2022-12-07T06:19:48.285Z,43.75
2022-12-07T06:22:15.001Z,46.83
2022-12-07T06:24:41.729Z,45.42
2022-12-07T06:27:09.274Z,44.70
2022-12-07T06:29:35.928Z,47.00
2022-12-07T06:32:02.952Z,46.65
2022-12-07T06:34:29.988Z,45.40
2022-12-07T06:36:56.886Z,45.30
2022-12-07T06:39:26.495Z,44.10
2022-12-07T06:41:53.545Z,40.55
2022-12-07T06:44:20.356Z,42.00
2022-12-07T06:46:47.377Z,42.85
2022-12-07T06:49:14.039Z,41.03
2022-12-07T06:51:40.767Z,40.88
2022-12-07T06:54:08.166Z,42.17
2022-12-07T06:56:34.884Z,41.58
2022-12-07T06:59:05.502Z,42.65
2022-12-07T07:01:32.413Z,41.25
2022-12-07T07:03:59.206Z,40.40
2022-12-07T07:06:26.012Z,42.42
2022-12-07T07:08:52.909Z,40.78
2022-12-07T07:11:20.152Z,43.03
2022-12-07T07:13:46.981Z,40.72
2022-12-07T07:16:14.168Z,40.78
2022-12-07T07:18:40.908Z,40.78
2022-12-07T07:21:07.674Z,42.92
2022-12-07T07:23:34.350Z,40.45
2022-12-07T07:26:01.184Z,39.40
2022-12-07T07:28:27.865Z,39.15
2022-12-07T07:30:54.671Z,38.47
2022-12-07T07:33:21.549Z,35.05
2022-12-07T07:35:48.277Z,36.53
2022-12-07T07:38:14.969Z,34.00
2022-12-07T07:40:41.714Z,31.42
2022-12-07T07:43:08.379Z,29.95
2022-12-07T07:45:35.022Z,29.05
2022-12-07T07:48:01.683Z,29.98
2022-12-07T07:50:28.434Z,30.73
2022-12-07T07:52:55.197Z,28.50
2022-12-07T07:55:21.875Z,27.20
2022-12-07T07:57:54.272Z,26.05
2022-12-07T08:00:22.120Z,25.30
2022-12-07T08:02:49.014Z,22.98
2022-12-07T08:05:15.907Z,23.20
2022-12-07T08:07:42.812Z,22.00
2022-12-07T08:10:12.796Z,21.13
2022-12-07T08:12:40.791Z,21.92
2022-12-07T08:15:07.892Z,20.27
2022-12-07T08:17:34.578Z,18.67
2022-12-07T08:20:01.643Z,19.83
2022-12-07T08:22:28.573Z,18.13
2022-12-07T08:24:55.259Z,14.60
2022-12-07T08:27:21.943Z,15.98
2022-12-07T08:29:48.728Z,14.70
2022-12-07T08:32:15.402Z,14.20
2022-12-07T08:34:42.264Z,14.82
2022-12-07T08:37:08.956Z,14.32
2022-12-07T08:39:35.647Z,13.70
2022-12-07T08:42:02.320Z,12.88
2022-12-07T08:44:29.032Z,10.57
2022-12-07T08:47:01.941Z,10.05
2022-12-07T08:49:43.674Z,9.10
2022-12-07T08:52:10.385Z,7.78
2022-12-07T08:54:39.862Z,7.78
2022-12-07T08:57:07.479Z,5.90
2022-12-07T08:59:36.727Z,6.32
2022-12-07T09:02:03.783Z,6.15
2022-12-07T09:04:30.482Z,5.38
2022-12-07T09:07:02.915Z,4.53
2022-12-07T09:09:43.744Z,5.00
2022-12-07T09:12:22.807Z,3.47
2022-12-07T09:14:52.732Z,4.07
2022-12-07T09:17:19.458Z,4.32
2022-12-07T09:19:46.196Z,3.55
2022-12-07T09:22:13.024Z,3.70
2022-12-07T09:24:39.774Z,3.70
2022-12-07T09:27:06.479Z,3.70
2022-12-07T09:29:33.211Z,2.88
2022-12-07T09:31:59.994Z,2.65
2022-12-07T09:34:26.800Z,2.65
2022-12-07T09:36:53.560Z,2.30
2022-12-07T09:39:20.217Z,2.42
2022-12-07T09:41:46.884Z,3.10
2022-12-07T09:44:23.978Z,2.80
2022-12-07T09:46:51.740Z,3.40
2022-12-07T09:49:24.789Z,3.20
2022-12-07T09:52:20.582Z,2.90
2022-12-07T09:54:50.071Z,3.30
2022-12-07T09:57:17.211Z,3.30
2022-12-07T09:59:44.061Z,3.53
2022-12-07T10:02:32.940Z,3.42
2022-12-07T10:05:00.735Z,3.10
2022-12-07T10:07:27.749Z,2.60
2022-12-07T10:09:54.531Z,2.60
2022-12-07T10:12:21.288Z,2.42
2022-12-07T10:15:08.226Z,2.63
2022-12-07T10:17:42.438Z,2.90
2022-12-07T10:20:19.500Z,2.95
2022-12-07T10:23:01.580Z,3.00
2022-12-07T10:25:38.175Z,3.13
2022-12-07T10:28:15.632Z,2.30
2022-12-07T10:31:01.797Z,2.80
2022-12-07T10:36:35.724Z,2.70
2022-12-07T10:39:11.533Z,2.75
2022-12-07T10:41:58.138Z,2.95
2022-12-07T10:44:28.106Z,3.13
2022-12-07T10:47:06.803Z,3.20
2022-12-07T10:49:39.584Z,3.22
2022-12-07T10:52:17.492Z,3.42
2022-12-07T10:55:14.394Z,3.85
2022-12-07T10:58:04.066Z,3.70
2022-12-07T11:01:17.991Z,3.90
2022-12-07T11:03:54.744Z,4.05
2022-12-07T11:06:40.375Z,4.05
2022-12-07T11:12:58.261Z,5.07
2022-12-07T11:15:27.974Z,4.68
2022-12-07T11:17:57.702Z,5.07
2022-12-07T11:20:55.122Z,5.10
2022-12-07T11:23:27.580Z,5.78
2022-12-07T11:26:12.422Z,4.93
2022-12-07T11:29:09.230Z,5.45
2022-12-07T11:31:56.809Z,5.47
2022-12-07T11:34:55.938Z,6.13
2022-12-07T11:37:34.783Z,5.50
2022-12-07T11:40:27.485Z,5.20
2022-12-07T11:43:12.163Z,5.03
2022-12-07T11:45:43.205Z,5.63
2022-12-07T11:48:25.982Z,5.18
2022-12-07T11:50:58.484Z,5.28
2022-12-07T11:53:40.771Z,4.80
2022-12-07T11:56:13.264Z,5.20
2022-12-07T11:58:52.293Z,5.53
2022-12-07T12:01:49.997Z,5.00
2022-12-07T12:04:29.014Z,5.95
2022-12-07T12:06:56.632Z,5.60
2022-12-07T12:15:44.929Z,4.68
2022-12-07T12:18:11.607Z,5.30
2022-12-07T12:20:49.324Z,4.70
2022-12-07T12:23:23.400Z,4.80
2022-12-07T12:25:59.773Z,4.95
2022-12-07T12:28:51.663Z,5.35
2022-12-07T12:31:21.290Z,4.88
2022-12-07T12:33:53.523Z,5.10
2022-12-07T12:36:32.454Z,4.32
2022-12-07T12:39:08.249Z,4.00
2022-12-07T12:41:38.006Z,4.20
2022-12-07T12:44:24.581Z,4.25
2022-12-07T12:47:24.610Z,4.38
2022-12-07T12:50:24.048Z,4.28
2022-12-07T12:52:58.946Z,3.55
2022-12-07T12:55:43.167Z,3.23
2022-12-07T12:58:18.987Z,3.20
2022-12-07T13:01:07.196Z,3.40
2022-12-07T13:03:33.941Z,3.92
2022-12-07T13:06:25.168Z,3.58
2022-12-07T13:08:53.903Z,3.22
2022-12-07T13:11:32.096Z,3.35
2022-12-07T13:14:38.038Z,3.38
2022-12-07T13:17:05.270Z,3.85
2022-12-07T13:19:43.943Z,3.30
2022-12-07T13:22:32.216Z,3.80
2022-12-07T13:25:13.472Z,3.97
2022-12-07T13:27:44.469Z,3.58
2022-12-07T13:30:20.815Z,3.60
2022-12-07T13:32:59.033Z,3.47
2022-12-07T13:35:37.079Z,3.53
2022-12-07T13:38:06.916Z,3.45
2022-12-07T13:40:33.619Z,3.05
2022-12-07T13:43:02.734Z,3.60
2022-12-07T13:45:32.465Z,3.63
2022-12-07T13:48:00.529Z,3.53
2022-12-07T13:50:32.152Z,3.40
2022-12-07T13:53:01.439Z,3.50
2022-12-07T13:55:29.412Z,3.60
2022-12-07T13:57:56.937Z,2.50
2022-12-07T14:00:25.038Z,2.85
2022-12-07T14:03:18.203Z,3.35
2022-12-07T14:05:45.901Z,2.75
2022-12-07T14:08:12.649Z,3.42
2022-12-07T14:10:51.580Z,3.22
2022-12-07T14:13:39.087Z,3.08
2022-12-07T14:16:30.644Z,3.40
2022-12-07T14:19:00.225Z,3.78
2022-12-07T14:21:32.291Z,3.00
2022-12-07T14:24:20.325Z,2.97
2022-12-07T14:26:49.468Z,3.17
2022-12-07T14:29:28.415Z,3.15
2022-12-07T14:31:56.400Z,3.38
2022-12-07T14:34:24.211Z,3.17
2022-12-07T14:36:51.900Z,3.30
2022-12-07T14:39:18.621Z,3.13
2022-12-07T14:41:45.366Z,3.33
2022-12-07T14:44:34.166Z,3.28
2022-12-07T14:49:47.399Z,3.72
2022-12-07T14:55:25.331Z,3.78
2022-12-07T14:57:52.808Z,3.13
2022-12-07T15:00:21.120Z,4.00
2022-12-07T15:02:49.731Z,3.83
2022-12-07T15:05:17.424Z,3.33
2022-12-07T15:07:45.784Z,3.83
2022-12-07T15:10:25.034Z,3.97
2022-12-07T15:12:52.160Z,3.55
2022-12-07T15:15:18.824Z,3.13
2022-12-07T15:17:45.674Z,3.05
2022-12-07T15:20:16.260Z,3.17
2022-12-07T15:22:42.906Z,2.80
2022-12-07T15:25:14.006Z,2.70
2022-12-07T15:27:40.666Z,3.45
2022-12-07T15:30:08.051Z,2.83
2022-12-07T15:32:34.928Z,2.65
2022-12-07T15:35:02.020Z,3.22
2022-12-07T15:37:29.044Z,3.03
2022-12-07T15:39:55.866Z,2.78
2022-12-07T15:42:22.541Z,2.97
2022-12-07T15:44:49.226Z,3.53
2022-12-07T15:47:15.953Z,3.13
2022-12-07T15:49:42.638Z,3.15
2022-12-07T15:52:09.480Z,3.38
2022-12-07T15:54:36.393Z,3.30
2022-12-07T15:57:03.234Z,3.78
2022-12-07T15:59:30.339Z,3.28
2022-12-07T16:01:57.535Z,3.55
2022-12-07T16:04:24.252Z,3.13
2022-12-07T16:06:50.912Z,3.20
2022-12-07T16:09:17.994Z,3.60
2022-12-07T16:11:44.656Z,2.88
2022-12-07T16:14:11.319Z,3.53
2022-12-07T16:16:38.207Z,2.95
2022-12-07T16:19:04.945Z,3.42
2022-12-07T16:21:31.687Z,2.80
2022-12-07T16:23:59.053Z,3.30
2022-12-07T16:26:25.777Z,3.20
2022-12-07T16:28:53.925Z,3.40
2022-12-07T16:31:24.246Z,3.20
2022-12-07T16:33:53.316Z,3.00
2022-12-07T16:36:47.356Z,2.85
2022-12-07T16:39:07.633Z,3.40
2022-12-07T16:41:34.558Z,3.35
2022-12-07T16:44:08.169Z,3.60
2022-12-07T16:46:36.597Z,4.07
2022-12-07T16:49:04.603Z,3.10
2022-12-07T16:51:31.910Z,3.60
2022-12-07T16:53:58.612Z,3.28
2022-12-07T16:56:25.296Z,4.05
2022-12-07T16:58:51.972Z,3.65
2022-12-07T17:01:20.848Z,3.92
2022-12-07T17:03:48.062Z,4.00
2022-12-07T17:06:23.570Z,3.30
2022-12-07T17:08:51.448Z,3.42
2022-12-07T17:11:19.664Z,3.65
2022-12-07T17:13:46.941Z,3.50
2022-12-07T17:16:13.651Z,4.38
2022-12-07T17:18:40.425Z,3.83
2022-12-07T17:21:09.818Z,4.20
2022-12-07T17:23:37.923Z,4.05
2022-12-07T17:26:09.978Z,4.07
2022-12-07T17:28:36.983Z,4.20
2022-12-07T17:31:07.359Z,4.07
2022-12-07T17:33:34.345Z,4.32
2022-12-07T17:36:01.793Z,3.28
2022-12-07T17:38:31.455Z,3.88
2022-12-07T17:40:58.072Z,3.97
2022-12-07T17:43:24.714Z,4.60
2022-12-07T17:45:51.479Z,4.05
2022-12-07T17:48:18.127Z,4.90
2022-12-07T17:50:44.800Z,4.78
2022-12-07T17:53:12.554Z,4.50
2022-12-07T17:56:19.677Z,4.25
2022-12-07T17:58:26.023Z,4.15
2022-12-07T18:00:52.711Z,4.15
2022-12-07T18:03:19.481Z,4.25
2022-12-07T18:05:46.218Z,4.43
2022-12-07T18:08:12.947Z,4.47
2022-12-07T18:10:39.607Z,3.72
2022-12-07T18:13:06.275Z,4.28
2022-12-07T18:15:32.939Z,4.32
2022-12-07T18:17:59.886Z,4.38
2022-12-07T18:20:26.527Z,4.32
2022-12-07T18:22:53.193Z,4.43
2022-12-07T18:25:19.870Z,4.05
2022-12-07T18:27:46.625Z,4.68
2022-12-07T18:30:13.762Z,4.10
2022-12-07T18:32:40.503Z,4.50
2022-12-07T18:35:07.619Z,4.25
2022-12-07T18:37:34.264Z,4.85
2022-12-07T18:40:00.892Z,4.15
2022-12-07T18:42:27.631Z,5.13
2022-12-07T18:44:54.307Z,4.75
2022-12-07T18:47:21.046Z,4.22
2022-12-07T18:49:47.706Z,4.78
2022-12-07T18:52:14.366Z,4.78
2022-12-07T18:54:41.008Z,4.30
2022-12-07T18:57:07.714Z,4.60
2022-12-07T18:59:34.381Z,4.22
2022-12-07T19:02:01.128Z,4.38
2022-12-07T19:04:27.921Z,4.18
2022-12-07T19:06:54.612Z,4.45
2022-12-07T19:09:21.334Z,4.32
2022-12-07T19:11:48.609Z,4.47
2022-12-07T19:14:18.382Z,4.30
2022-12-07T19:16:45.639Z,4.63
2022-12-07T19:19:12.539Z,5.28
2022-12-07T19:21:39.233Z,4.10
2022-12-07T19:24:06.959Z,4.75
2022-12-07T19:26:34.127Z,4.45
2022-12-07T19:29:00.888Z,4.53
2022-12-07T19:31:27.589Z,4.30
2022-12-07T19:33:54.524Z,4.97
2022-12-07T19:36:21.167Z,5.10
2022-12-07T19:38:49.333Z,4.57
2022-12-07T19:41:16.160Z,5.35
2022-12-07T19:43:42.828Z,6.15
2022-12-07T19:46:09.598Z,5.95
2022-12-07T19:48:36.318Z,5.53
2022-12-07T19:51:06.247Z,5.90
2022-12-07T19:53:33.125Z,5.38
2022-12-07T19:55:59.856Z,5.13
2022-12-07T19:58:26.598Z,6.15
2022-12-07T20:00:53.573Z,5.40
2022-12-07T20:03:20.421Z,5.00
2022-12-07T20:05:47.539Z,5.28
2022-12-07T20:08:14.328Z,5.50
2022-12-07T20:10:41.858Z,6.10
2022-12-07T20:13:09.244Z,6.65
2022-12-07T20:15:38.270Z,6.20
2022-12-07T20:18:05.048Z,7.28
2022-12-07T20:20:31.741Z,6.85
2022-12-07T20:22:58.470Z,6.10
2022-12-07T20:25:25.354Z,5.80
2022-12-07T20:27:52.102Z,6.38
2022-12-07T20:30:18.904Z,7.80
2022-12-07T20:32:45.560Z,6.80
2022-12-07T20:35:12.203Z,7.18
2022-12-07T20:37:38.867Z,7.63
2022-12-07T20:40:06.497Z,7.93
2022-12-07T20:42:33.114Z,6.82
2022-12-07T20:45:03.503Z,6.95
2022-12-07T20:47:30.541Z,6.65
2022-12-07T20:49:57.183Z,7.50
2022-12-07T20:52:24.032Z,7.80
2022-12-07T20:54:50.679Z,8.23
2022-12-07T20:57:17.310Z,7.80
2022-12-07T20:59:43.988Z,8.35
2022-12-07T21:02:12.758Z,8.68
2022-12-07T21:04:40.487Z,8.73
2022-12-07T21:07:07.136Z,8.32
2022-12-07T21:09:33.792Z,8.70
2022-12-07T21:12:00.581Z,8.23
2022-12-07T21:14:27.331Z,8.77
2022-12-07T21:16:54.029Z,8.38
2022-12-07T21:19:20.820Z,8.32
2022-12-07T21:21:47.455Z,8.85
2022-12-07T21:24:14.106Z,8.98
2022-12-07T21:26:40.775Z,9.02
2022-12-07T21:29:07.808Z,8.60
2022-12-07T21:31:35.124Z,9.23
2022-12-07T21:34:03.515Z,8.07
2022-12-07T21:36:30.233Z,9.05
2022-12-07T21:38:57.637Z,8.43
2022-12-07T21:41:30.104Z,8.25
2022-12-07T21:43:57.243Z,8.65
2022-12-07T21:46:32.926Z,8.73
2022-12-07T21:49:10.738Z,8.70
2022-12-07T21:51:37.488Z,8.82
2022-12-07T21:54:05.926Z,8.73
2022-12-07T21:56:41.366Z,9.02
2022-12-07T21:59:16.512Z,9.98
2022-12-07T22:01:45.207Z,9.82
2022-12-07T22:04:21.455Z,10.35
2022-12-07T22:06:49.519Z,10.35
2022-12-07T22:09:16.489Z,10.57
2022-12-07T22:11:43.175Z,10.50
2022-12-07T22:14:10.900Z,10.30
2022-12-07T22:16:39.041Z,10.65
2022-12-07T22:19:06.883Z,10.57
2022-12-07T22:21:33.784Z,11.00
2022-12-07T22:24:00.403Z,10.68
2022-12-07T22:26:27.456Z,10.00
2022-12-07T22:28:54.360Z,10.63
2022-12-07T22:31:21.549Z,10.23
2022-12-07T22:33:48.774Z,10.80
2022-12-07T22:36:16.037Z,9.90
2022-12-07T22:38:43.630Z,10.82
2022-12-07T22:41:11.158Z,10.68
2022-12-07T22:43:38.618Z,10.40
2022-12-07T22:46:05.826Z,11.07
2022-12-07T22:48:32.663Z,10.10
2022-12-07T22:50:59.338Z,10.77
2022-12-07T22:53:26.303Z,10.40
2022-12-07T22:55:53.377Z,10.25
2022-12-07T22:58:20.202Z,10.90
2022-12-07T23:00:46.872Z,11.20
2022-12-07T23:03:14.431Z,12.05
2022-12-07T23:05:46.578Z,11.55
2022-12-07T23:08:13.755Z,12.40
2022-12-07T23:10:46.180Z,11.85
2022-12-07T23:13:15.157Z,11.93
2022-12-07T23:15:41.824Z,11.75
2022-12-07T23:18:08.506Z,12.45
2022-12-07T23:20:35.208Z,12.07
2022-12-07T23:23:02.486Z,12.80
2022-12-07T23:25:29.226Z,11.57
2022-12-07T23:27:55.903Z,12.48
2022-12-07T23:30:22.569Z,12.50
2022-12-07T23:32:49.366Z,12.90
2022-12-07T23:35:16.991Z,12.48
2022-12-07T23:37:44.371Z,13.43
2022-12-07T23:40:15.597Z,13.40
2022-12-07T23:42:54.304Z,14.77
2022-12-07T23:45:21.168Z,14.02
2022-12-07T23:47:47.819Z,15.00
2022-12-07T23:50:14.474Z,15.18
2022-12-07T23:52:41.090Z,14.15
2022-12-07T23:55:08.191Z,13.85
2022-12-07T23:57:34.836Z,13.20
